Time;durP1;ratioP1;P1;durP2;ratioP2;P2;SDS_P1;SDS_P2;PMS_P1;PMS_P2;Temp;Humidity;BMP_temperature;BMP_pressure;BME280_temperature;BME280_humidity;BME280_pressure;Samples;Min_cycle;Max_cycle;Signal;HPM_P1;HPM_P2
2023/10/23 00:00:35;;;;;;;1.60;1.50;;;;;;;9.01;100.00;101175.06;5033850;28;20041;-87
2023/10/23 00:03:01;;;;;;;1.70;1.60;;;;;;;8.98;100.00;101175.09;5033467;28;20029;-86
2023/10/23 00:05:26;;;;;;;1.50;1.40;;;;;;;8.99;100.00;101181.13;5033749;28;20026;-87
2023/10/23 00:07:51;;;;;;;1.30;1.30;;;;;;;8.92;100.00;101181.16;5033670;28;20112;-86
2023/10/23 00:10:16;;;;;;;1.93;1.63;;;;;;;8.93;100.00;101188.06;5032668;28;20033;-87
2023/10/23 00:12:42;;;;;;;1.47;1.37;;;;;;;8.89;100.00;101188.09;5033903;28;20096;-87
2023/10/23 00:15:07;;;;;;;1.43;1.33;;;;;;;8.82;100.00;101182.06;5033366;28;20029;-87
2023/10/23 00:17:35;;;;;;;1.63;1.37;;;;;;;8.84;100.00;101189.81;5032926;28;20485;-87
2023/10/23 00:20:02;;;;;;;1.33;1.23;;;;;;;8.78;100.00;101185.50;5033692;28;20108;-87
2023/10/23 00:22:27;;;;;;;1.50;1.40;;;;;;;8.77;100.00;101181.19;5034052;28;20029;-87
2023/10/23 00:24:52;;;;;;;2.20;1.30;;;;;;;8.80;100.00;101192.41;5032730;28;20080;-87
2023/10/23 00:27:18;;;;;;;1.20;1.20;;;;;;;8.79;100.00;101192.41;5033697;28;20543;-86
2023/10/23 00:29:43;;;;;;;1.95;1.55;;;;;;;8.78;100.00;101188.94;5033964;28;20020;-87
2023/10/23 00:32:11;;;;;;;1.43;1.33;;;;;;;8.75;100.00;101191.56;5032563;28;20049;-86
2023/10/23 00:34:36;;;;;;;1.48;1.38;;;;;;;8.74;100.00;101194.13;5033805;28;20047;-87
2023/10/23 00:37:01;;;;;;;1.27;1.20;;;;;;;8.68;100.00;101186.41;5033929;28;20025;-86
2023/10/23 00:39:27;;;;;;;1.00;1.00;;;;;;;8.69;100.00;101198.47;5033123;28;20025;-87
2023/10/23 00:41:52;;;;;;;1.30;1.20;;;;;;;8.64;100.00;101199.34;5033112;28;20022;-87
2023/10/23 00:44:17;;;;;;;1.10;1.10;;;;;;;8.57;100.00;101192.44;5029887;28;20042;-87
2023/10/23 00:46:43;;;;;;;1.33;1.23;;;;;;;8.58;100.00;101195.88;5036279;23;20061;-87
2023/10/23 00:49:09;;;;;;;1.00;1.00;;;;;;;8.59;100.00;101195.03;5052546;28;20486;-86
2023/10/23 00:51:35;;;;;;;1.47;1.37;;;;;;;8.52;100.00;101182.97;5045010;28;20036;-87
2023/10/23 00:54:02;;;;;;;1.52;1.42;;;;;;;8.49;100.00;101187.28;5031932;28;20482;-87
2023/10/23 00:56:28;;;;;;;1.20;1.20;;;;;;;8.53;100.00;101195.91;5033427;28;20393;-86
2023/10/23 00:58:54;;;;;;;1.60;1.50;;;;;;;8.56;100.00;101202.78;5032929;28;20116;-87
2023/10/23 01:01:19;;;;;;;1.70;1.60;;;;;;;8.52;100.00;101196.75;5032414;28;20067;-87
2023/10/23 01:03:45;;;;;;;1.50;1.40;;;;;;;8.52;100.00;101198.50;5033267;28;20120;-86
2023/10/23 01:06:12;;;;;;;1.70;1.60;;;;;;;8.53;100.00;101202.81;5032200;28;20021;-86
2023/10/23 01:08:38;;;;;;;1.75;1.60;;;;;;;8.52;100.00;101203.66;5033325;28;20033;-87
2023/10/23 01:11:03;;;;;;;1.70;1.60;;;;;;;8.49;100.00;101207.97;5032993;28;20087;-87
2023/10/23 01:13:29;;;;;;;1.20;1.20;;;;;;;8.48;100.00;101208.00;5032783;28;20021;-87
2023/10/23 01:15:54;;;;;;;1.50;1.40;;;;;;;8.48;100.00;101208.84;5033248;28;20041;-87
2023/10/23 01:18:19;;;;;;;1.10;1.10;;;;;;;8.46;100.00;101220.88;5032794;28;20063;-87
2023/10/23 01:20:46;;;;;;;1.60;1.50;;;;;;;8.46;100.00;101218.28;5032610;28;20045;-87
2023/10/23 01:23:11;;;;;;;1.35;1.30;;;;;;;8.44;100.00;101214.88;5033264;28;20010;-87
2023/10/23 01:25:38;;;;;;;1.10;1.10;;;;;;;8.41;100.00;101217.44;5033091;28;20031;-86
2023/10/23 01:28:04;;;;;;;1.40;1.30;;;;;;;8.41;100.00;101212.28;5032099;28;20104;-87
2023/10/23 01:30:29;;;;;;;1.23;1.17;;;;;;;8.41;100.00;101217.44;5032296;28;20105;-87
2023/10/23 01:32:55;;;;;;;1.50;1.40;;;;;;;8.42;100.00;101218.28;5032632;28;20029;-87
2023/10/23 01:35:20;;;;;;;1.50;1.40;;;;;;;8.33;100.00;101204.50;5032073;28;20072;-87
2023/10/23 01:37:47;;;;;;;1.55;1.45;;;;;;;8.42;100.00;101211.41;5032933;28;20131;-87
2023/10/23 01:40:12;;;;;;;1.20;1.10;;;;;;;8.41;100.00;101201.94;5032708;28;20030;-87
2023/10/23 01:42:38;;;;;;;1.70;1.60;;;;;;;8.41;100.00;101209.69;5032387;28;20095;-87
2023/10/23 01:45:04;;;;;;;1.17;1.17;;;;;;;8.42;100.00;101202.78;5032396;28;20533;-86
2023/10/23 01:47:29;;;;;;;1.13;1.10;;;;;;;8.41;100.00;101198.47;5032191;28;20076;-87
2023/10/23 01:49:54;;;;;;;1.33;1.17;;;;;;;8.43;100.00;101202.78;5032567;28;20025;-87
2023/10/23 01:52:20;;;;;;;1.52;1.42;;;;;;;8.44;100.00;101203.63;5046603;28;20033;-87
2023/10/23 01:54:45;;;;;;;1.20;1.07;;;;;;;8.42;100.00;101200.19;5052896;28;20040;-87
2023/10/23 01:57:12;;;;;;;1.50;1.40;;;;;;;8.43;100.00;101213.13;5051795;28;20108;-87
2023/10/23 01:59:38;;;;;;;1.45;1.35;;;;;;;8.41;100.00;101212.28;5053562;28;20423;-87
2023/10/23 02:02:03;;;;;;;1.37;1.27;;;;;;;8.38;100.00;101190.72;5055690;28;20171;-86
2023/10/23 02:04:29;;;;;;;1.50;1.40;;;;;;;8.42;100.00;101200.19;5055642;28;20071;-87
2023/10/23 02:06:55;;;;;;;1.75;1.63;;;;;;;8.40;100.00;101199.31;5056721;28;20032;-87
2023/10/23 02:09:21;;;;;;;1.50;1.40;;;;;;;8.41;100.00;101198.47;5056413;28;20106;-87
2023/10/23 02:11:46;;;;;;;1.55;1.45;;;;;;;8.42;100.00;101205.34;5055764;28;20028;-87
2023/10/23 02:14:12;;;;;;;1.57;1.47;;;;;;;8.38;100.00;101207.09;5055895;28;20021;-87
2023/10/23 02:16:37;;;;;;;1.60;1.50;;;;;;;8.35;100.00;101205.38;5055347;28;20075;-86
2023/10/23 02:19:02;;;;;;;1.70;1.60;;;;;;;8.36;100.00;101213.97;5056173;28;20470;-86
2023/10/23 02:21:28;;;;;;;2.07;1.40;;;;;;;8.33;100.00;101217.44;5049266;28;20083;-87
2023/10/23 02:23:53;;;;;;;1.53;1.43;;;;;;;8.32;100.00;101223.47;5035516;28;20049;-87
2023/10/23 02:26:19;;;;;;;1.97;1.60;;;;;;;8.24;100.00;101211.38;5035942;28;20028;-87
2023/10/23 02:28:44;;;;;;;1.33;1.33;;;;;;;8.30;100.00;101232.09;5035947;28;20470;-87
2023/10/23 02:31:09;;;;;;;1.50;1.40;;;;;;;8.24;100.00;101222.63;5042231;28;20462;-87
2023/10/23 02:33:34;;;;;;;1.60;1.50;;;;;;;8.27;100.00;101235.56;5056178;28;20033;-87
2023/10/23 02:36:00;;;;;;;1.70;1.60;;;;;;;8.28;100.00;101244.16;5055718;28;20056;-87
2023/10/23 02:38:25;;;;;;;1.37;1.27;;;;;;;8.13;100.00;101217.41;5054772;28;20032;-87
2023/10/23 02:40:52;;;;;;;1.52;1.42;;;;;;;8.22;100.00;101244.16;5056057;28;20533;-87
2023/10/23 02:43:17;;;;;;;1.40;1.30;;;;;;;8.19;100.00;101240.72;5055257;28;20490;-87
2023/10/23 02:45:43;;;;;;;2.47;1.55;;;;;;;8.13;100.00;101243.28;5054944;28;20021;-87
2023/10/23 02:48:09;;;;;;;1.50;1.40;;;;;;;8.16;100.00;101240.69;5054950;28;20080;-87
2023/10/23 02:50:34;;;;;;;2.53;1.50;;;;;;;8.15;100.00;101235.53;5055667;28;20025;-87
2023/10/23 02:53:00;;;;;;;1.57;1.47;;;;;;;8.11;100.00;101239.81;5054739;28;20480;-87
2023/10/23 02:55:26;;;;;;;1.50;1.40;;;;;;;8.09;100.00;101240.69;5054833;28;20048;-87
2023/10/23 02:57:52;;;;;;;1.67;1.50;;;;;;;8.04;100.00;101238.97;5036204;28;20041;-87
2023/10/23 03:00:18;;;;;;;1.30;1.20;;;;;;;8.01;100.00;101238.09;5034098;28;20474;-87
2023/10/23 03:02:44;;;;;;;1.30;1.20;;;;;;;8.00;100.00;101236.34;5035637;28;20021;-87
2023/10/23 03:05:10;;;;;;;1.40;1.30;;;;;;;8.02;100.00;101244.97;5035266;28;20363;-86
2023/10/23 03:07:35;;;;;;;1.45;1.35;;;;;;;7.98;100.00;101238.94;5035007;28;20418;-86
2023/10/23 03:10:00;;;;;;;2.20;1.40;;;;;;;7.98;100.00;101238.94;5035158;28;20466;-87
2023/10/23 03:12:26;;;;;;;1.73;1.40;;;;;;;7.95;100.00;101238.94;5035263;28;20520;-87
2023/10/23 03:14:52;;;;;;;1.73;1.63;;;;;;;7.90;100.00;101240.66;5034394;28;20028;-87
2023/10/23 03:17:17;;;;;;;1.73;1.63;;;;;;;7.87;100.00;101238.94;5034630;28;20033;-87
2023/10/23 03:19:42;;;;;;;1.73;1.63;;;;;;;7.87;100.00;101246.69;5035123;28;20458;-87
2023/10/23 03:22:08;;;;;;;1.80;1.60;;;;;;;7.82;100.00;101235.47;5034344;28;20036;-87
2023/10/23 03:24:33;;;;;;;1.80;1.70;;;;;;;7.79;100.00;101238.03;5035370;28;20021;-87
2023/10/23 03:26:58;;;;;;;1.85;1.75;;;;;;;7.76;100.00;101238.06;5034309;28;20029;-87
2023/10/23 03:29:23;;;;;;;2.17;1.60;;;;;;;7.77;100.00;101239.75;5034602;28;20021;-87
2023/10/23 03:31:49;;;;;;;1.80;1.50;;;;;;;7.75;100.00;101244.06;5035167;28;20055;-87
2023/10/23 03:34:14;;;;;;;1.73;1.60;;;;;;;7.68;100.00;101237.16;5033635;28;20481;-86
2023/10/23 03:36:39;;;;;;;1.53;1.43;;;;;;;7.68;100.00;101242.31;5034894;28;20113;-86
2023/10/23 03:39:05;;;;;;;1.60;1.50;;;;;;;7.62;100.00;101235.41;5034225;28;20462;-86
2023/10/23 03:41:30;;;;;;;1.80;1.70;;;;;;;7.62;100.00;101244.88;5034094;28;20025;-87
2023/10/23 03:43:56;;;;;;;2.22;1.55;;;;;;;7.56;100.00;101240.56;5034819;28;20083;-85
2023/10/23 03:46:22;;;;;;;1.93;1.80;;;;;;;7.55;100.00;101251.75;5048240;23;20391;-86
2023/10/23 03:48:47;;;;;;;1.63;1.53;;;;;;;7.52;100.00;101252.63;5034264;28;20083;-86
2023/10/23 03:51:12;;;;;;;1.80;1.70;;;;;;;7.47;100.00;101249.13;5033894;28;20108;-86
2023/10/23 03:53:38;;;;;;;1.80;1.70;;;;;;;7.46;100.00;101249.13;5087468;23;20133;-86
2023/10/23 03:56:06;;;;;;;1.87;1.67;;;;;;;7.49;100.00;101250.00;5033482;28;20535;-87
2023/10/23 03:58:31;;;;;;;1.80;1.70;;;;;;;7.48;100.00;101242.25;5034213;28;20025;-86
2023/10/23 04:00:56;;;;;;;1.93;1.60;;;;;;;7.44;100.00;101240.50;5034441;28;20025;-86
2023/10/23 04:03:22;;;;;;;2.13;1.63;;;;;;;7.46;100.00;101254.31;5033522;28;20049;-87
2023/10/23 04:05:47;;;;;;;1.97;1.73;;;;;;;7.43;100.00;101244.81;5033769;28;20456;-87
2023/10/23 04:08:13;;;;;;;1.77;1.67;;;;;;;7.40;100.00;101250.81;5034001;28;20032;-86
2023/10/23 04:10:45;;;;;;;2.45;1.83;;;;;;;7.38;100.00;101254.25;5033408;28;20056;-87
2023/10/23 04:13:10;;;;;;;1.70;1.60;;;;;;;7.33;100.00;101253.38;5033837;28;20462;-86
2023/10/23 04:15:35;;;;;;;2.70;2.10;;;;;;;7.28;100.00;101255.09;5033949;28;20017;-87
2023/10/23 04:18:01;;;;;;;2.33;2.08;;;;;;;7.24;100.00;101252.47;5033148;28;20029;-86
2023/10/23 04:20:26;;;;;;;2.22;1.77;;;;;;;7.22;100.00;101254.19;5033258;28;20029;-87
2023/10/23 04:22:51;;;;;;;2.00;1.77;;;;;;;7.22;100.00;101246.44;5032981;28;20102;-86
2023/10/23 04:25:17;;;;;;;1.87;1.77;;;;;;;7.20;100.00;101248.16;5032903;28;20378;-86
2023/10/23 04:27:43;;;;;;;1.70;1.60;;;;;;;7.14;100.00;101253.28;5033829;28;20101;-86
2023/10/23 04:30:09;;;;;;;2.10;1.90;;;;;;;7.18;100.00;101251.56;5033388;28;20028;-85
2023/10/23 04:32:34;;;;;;;1.90;1.80;;;;;;;7.15;100.00;101262.75;5033475;28;20547;-87
2023/10/23 04:34:59;;;;;;;1.90;1.80;;;;;;;7.12;100.00;101254.97;5033930;28;20053;-87
2023/10/23 04:37:25;;;;;;;2.10;1.90;;;;;;;7.12;100.00;101265.31;5032698;28;20021;-87
2023/10/23 04:39:50;;;;;;;2.10;1.90;;;;;;;7.11;100.00;101263.56;5033603;28;20033;-87
2023/10/23 04:42:15;;;;;;;2.80;1.80;;;;;;;7.11;100.00;101261.88;5033558;28;20032;-87
2023/10/23 04:44:41;;;;;;;1.97;1.87;;;;;;;7.10;100.00;101264.44;5033307;28;20037;-88
2023/10/23 04:47:06;;;;;;;1.90;1.80;;;;;;;7.09;100.00;101260.16;5033822;28;20029;-89
2023/10/23 04:49:31;;;;;;;2.00;1.83;;;;;;;7.06;100.00;101266.13;5034192;28;20025;-85
2023/10/23 04:51:57;;;;;;;1.90;1.80;;;;;;;7.02;100.00;101261.84;5032338;28;20021;-87
2023/10/23 04:54:22;;;;;;;2.20;1.90;;;;;;;7.01;100.00;101256.63;5032839;28;20124;-88
2023/10/23 04:56:47;;;;;;;1.92;1.73;;;;;;;6.98;100.00;101251.47;5033546;28;20068;-86
2023/10/23 04:59:13;;;;;;;1.83;1.70;;;;;;;6.95;100.00;101244.56;5033572;28;20112;-92
2023/10/23 05:01:38;;;;;;;2.08;1.80;;;;;;;6.90;100.00;101247.13;5034261;28;20213;-92
2023/10/23 05:04:04;;;;;;;1.50;1.40;;;;;;;6.87;100.00;101241.94;5033940;28;20030;-91
2023/10/23 05:06:29;;;;;;;1.53;1.43;;;;;;;6.87;100.00;101241.94;5034441;28;20033;-91
2023/10/23 05:08:54;;;;;;;2.13;1.70;;;;;;;6.88;100.00;101246.25;5034300;28;20112;-88
2023/10/23 05:11:20;;;;;;;1.77;1.60;;;;;;;6.84;100.00;101249.66;5033439;28;20030;-88
2023/10/23 05:13:46;;;;;;;1.98;1.80;;;;;;;6.84;100.00;101256.53;5031976;28;20495;-88
2023/10/23 05:16:12;;;;;;;2.20;2.00;;;;;;;6.83;100.00;101257.38;5032887;28;20470;-89
2023/10/23 05:18:38;;;;;;;3.17;1.90;;;;;;;6.81;100.00;101254.81;5033499;28;20029;-87
2023/10/23 05:21:09;;;;;;;2.20;2.00;;;;;;;6.84;100.00;101253.94;5033122;28;20032;-88
2023/10/23 05:23:35;;;;;;;1.83;1.73;;;;;;;6.73;100.00;101228.09;5033419;28;20026;-88
2023/10/23 05:26:01;;;;;;;2.47;1.90;;;;;;;6.81;100.00;101249.63;5033700;28;20116;-84
2023/10/23 05:28:26;;;;;;;2.22;1.90;;;;;;;6.77;100.00;101253.03;5031984;28;20088;-88
2023/10/23 05:30:52;;;;;;;2.03;1.83;;;;;;;6.69;100.00;101242.69;5032861;28;20021;-87
2023/10/23 05:33:17;;;;;;;2.88;1.80;;;;;;;6.71;100.00;101245.28;5032765;28;20553;-87
2023/10/23 05:35:43;;;;;;;2.30;2.10;;;;;;;6.67;100.00;101243.50;5036488;28;20052;-88
2023/10/23 05:38:08;;;;;;;2.00;1.90;;;;;;;6.63;100.00;101238.34;5037150;28;20029;-88
2023/10/23 05:40:33;;;;;;;2.17;1.93;;;;;;;6.60;100.00;101242.59;5036062;28;20022;-84
2023/10/23 05:42:59;;;;;;;2.25;2.05;;;;;;;6.58;100.00;101247.75;5036535;28;20025;-84
2023/10/23 05:45:24;;;;;;;1.63;1.53;;;;;;;6.53;100.00;101241.69;5036503;28;20028;-85
2023/10/23 05:47:49;;;;;;;2.10;1.90;;;;;;;6.52;100.00;101234.81;5035568;28;20064;-84
2023/10/23 05:50:20;;;;;;;2.10;1.90;;;;;;;6.56;100.00;101248.59;5036976;28;20499;-88
2023/10/23 05:52:46;;;;;;;2.70;2.00;;;;;;;6.49;100.00;101248.53;5035577;28;20025;-88
2023/10/23 05:55:11;;;;;;;2.03;1.83;;;;;;;6.49;100.00;101255.44;5035523;28;20050;-88
2023/10/23 05:57:36;;;;;;;1.88;1.73;;;;;;;6.49;100.00;101258.84;5036976;28;20465;-88
2023/10/23 06:00:08;;;;;;;1.92;1.80;;;;;;;6.45;100.00;101257.13;5037384;28;20147;-89
2023/10/23 06:02:34;;;;;;;2.15;1.95;;;;;;;6.46;100.00;101251.13;5035071;28;20124;-89
2023/10/23 06:04:59;;;;;;;2.77;2.10;;;;;;;6.48;100.00;101249.38;5036932;28;20124;-88
2023/10/23 06:07:24;;;;;;;2.35;2.15;;;;;;;6.46;100.00;101247.66;5036672;28;20045;-88
2023/10/23 06:09:50;;;;;;;2.97;1.90;;;;;;;6.43;100.00;101245.94;5035811;28;20470;-89
2023/10/23 06:12:15;;;;;;;2.10;1.90;;;;;;;6.43;100.00;101256.25;5036262;28;20033;-88
2023/10/23 06:14:41;;;;;;;1.90;1.80;;;;;;;6.41;100.00;101254.50;5037005;28;20080;-88
2023/10/23 06:17:06;;;;;;;2.67;1.93;;;;;;;6.35;100.00;101250.16;5036019;28;20108;-88
2023/10/23 06:19:32;;;;;;;2.33;1.73;;;;;;;6.38;100.00;101255.31;5036841;28;20056;-88
2023/10/23 06:21:57;;;;;;;2.63;1.90;;;;;;;6.38;100.00;101262.22;5036943;28;20374;-89
2023/10/23 06:24:26;;;;;;;1.90;1.80;;;;;;;6.33;100.00;101260.44;5034303;28;20021;-89
2023/10/23 06:26:51;;;;;;;2.03;1.73;;;;;;;6.30;100.00;101250.13;5036097;28;20499;-89
2023/10/23 06:29:16;;;;;;;1.60;1.50;;;;;;;6.26;100.00;101247.47;5036152;28;20029;-88
2023/10/23 06:31:42;;;;;;;1.58;1.48;;;;;;;6.32;100.00;101253.56;5035754;28;20022;-89
2023/10/23 06:34:07;;;;;;;2.22;1.75;;;;;;;6.31;100.00;101251.81;5036186;28;20539;-89
2023/10/23 06:36:32;;;;;;;1.60;1.50;;;;;;;6.36;100.00;101254.44;5036417;28;20504;-89
2023/10/23 06:38:58;;;;;;;2.00;1.90;;;;;;;6.43;100.00;101258.81;5035395;28;20033;-88
2023/10/23 06:41:23;;;;;;;2.27;1.90;;;;;;;6.46;100.00;101257.97;5035852;28;20394;-88
2023/10/23 06:43:48;;;;;;;2.25;1.80;;;;;;;6.44;100.00;101257.09;5035540;28;20493;-87
2023/10/23 06:46:14;;;;;;;1.70;1.50;;;;;;;6.45;100.00;101262.28;5034820;28;20351;-88
2023/10/23 06:48:44;;;;;;;1.60;1.50;;;;;;;6.42;100.00;101257.09;5035917;28;20088;-88
2023/10/23 06:51:13;;;;;;;1.52;1.42;;;;;;;6.43;100.00;101253.66;5034633;28;20441;-87
2023/10/23 06:53:39;;;;;;;1.50;1.40;;;;;;;6.51;100.00;101258.00;5034888;28;20112;-87
2023/10/23 06:56:05;;;;;;;1.30;1.23;;;;;;;6.55;100.00;101254.63;5035924;28;20029;-88
2023/10/23 06:58:30;;;;;;;1.63;1.53;;;;;;;6.56;100.00;101248.59;5035388;28;20363;-86
2023/10/23 07:00:55;;;;;;;1.90;1.60;;;;;;;6.65;100.00;101259.00;5048381;23;20135;-85
2023/10/23 07:03:21;;;;;;;1.20;1.20;;;;;;;6.70;100.00;101248.69;5055011;28;20508;-86
2023/10/23 07:05:46;;;;;;;1.40;1.30;;;;;;;6.80;100.00;101250.50;5054368;28;20108;-83
2023/10/23 07:08:12;;;;;;;1.35;1.25;;;;;;;6.83;100.00;101247.06;5054521;28;20117;-83
2023/10/23 07:10:38;;;;;;;1.67;1.58;;;;;;;6.85;100.00;101251.41;5054446;28;20025;-82
2023/10/23 07:13:03;;;;;;;1.70;1.60;;;;;;;6.93;100.00;101254.88;5053680;28;20033;-86
2023/10/23 07:15:32;;;;;;;1.70;1.60;;;;;;;6.96;100.00;101254.03;5054782;28;20112;-84
2023/10/23 07:17:58;;;;;;;1.85;1.40;;;;;;;7.01;100.00;101251.47;5054789;28;20436;-85
2023/10/23 07:20:27;;;;;;;1.70;1.60;;;;;;;7.04;100.00;101249.78;5053694;28;20028;-83
2023/10/23 07:22:52;;;;;;;2.10;1.90;;;;;;;7.07;100.00;101251.53;5053987;28;20040;-83
2023/10/23 07:25:17;;;;;;;2.13;1.90;;;;;;;7.12;100.00;101249.81;5054606;28;20025;-83
2023/10/23 07:27:42;;;;;;;1.83;1.73;;;;;;;7.16;100.00;101251.56;5054117;28;20029;-83
2023/10/23 07:30:09;;;;;;;1.97;1.80;;;;;;;7.21;100.00;101241.28;5054202;28;20021;-83
2023/10/23 07:32:34;;;;;;;2.00;1.90;;;;;;;7.22;100.00;101243.00;5054791;28;20024;-84
2023/10/23 07:35:00;;;;;;;4.47;2.80;;;;;;;7.31;100.00;101240.47;5053891;28;20025;-82
2023/10/23 07:37:27;;;;;;;4.23;3.00;;;;;;;7.31;100.00;101240.47;5054155;28;20036;-81
2023/10/23 07:39:56;;;;;;;7.35;3.40;;;;;;;7.35;100.00;101243.91;5054475;28;20025;-83
2023/10/23 07:42:21;;;;;;;4.88;2.70;;;;;;;7.38;100.00;101249.09;5053541;28;20021;-86
2023/10/23 07:44:46;;;;;;;3.30;2.47;;;;;;;7.47;100.00;101261.19;5054127;28;20488;-86
2023/10/23 07:47:14;;;;;;;3.17;2.67;;;;;;;7.52;100.00;101267.22;5053888;28;20021;-85
2023/10/23 07:49:40;;;;;;;3.42;2.50;;;;;;;7.55;100.00;101262.94;5054158;28;20033;-87
2023/10/23 07:52:05;;;;;;;2.40;2.17;;;;;;;7.59;100.00;101263.84;5053269;28;20025;-86
2023/10/23 07:54:33;;;;;;;2.83;2.17;;;;;;;7.67;100.00;101263.84;5053519;28;20155;-87
2023/10/23 07:56:59;;;;;;;3.33;2.42;;;;;;;7.73;100.00;101264.72;5052877;28;20066;-86
2023/10/23 07:59:26;;;;;;;4.00;2.70;;;;;;;7.75;100.00;101266.44;5053647;28;20028;-86
2023/10/23 08:01:52;;;;;;;;;;;;;;;7.81;100.00;101262.16;5053452;28;20131;-86
2023/10/23 08:04:17;;;;;;;3.72;2.65;;;;;;;7.86;100.00;101259.59;5053635;28;19987;-86
2023/10/23 08:06:42;;;;;;;4.63;2.58;;;;;;;7.96;100.00;101265.66;5053758;28;20543;-86
2023/10/23 08:09:09;;;;;;;5.03;2.60;;;;;;;7.99;100.00;101253.59;5053039;28;20512;-85
2023/10/23 08:11:34;;;;;;;4.63;2.70;;;;;;;8.02;100.00;101255.31;5053840;28;20058;-86
2023/10/23 08:14:00;;;;;;;6.13;3.43;;;;;;;8.12;100.00;101251.03;5061353;28;20055;-91
2023/10/23 08:16:25;;;;;;;7.00;3.60;;;;;;;8.20;100.00;101251.91;5055970;28;20031;-86
2023/10/23 08:18:50;;;;;;;6.35;3.33;;;;;;;8.24;100.00;101245.00;5053765;28;20064;-84
2023/10/23 08:21:16;;;;;;;3.67;2.70;;;;;;;8.25;100.00;101231.22;5052954;28;20029;-86
2023/10/23 08:23:46;;;;;;;4.10;2.67;;;;;;;8.37;100.00;101240.72;5051861;28;20108;-87
2023/10/23 08:26:12;;;;;;;2.92;2.38;;;;;;;8.41;100.00;101238.13;5053356;28;20021;-87
2023/10/23 08:28:37;;;;;;;2.87;2.30;;;;;;;8.47;100.00;101240.75;5053646;28;20151;-88
2023/10/23 08:31:03;;;;;;;4.13;2.80;;;;;;;8.57;100.00;101244.19;5052471;28;20040;-84
2023/10/23 08:33:28;;;;;;;4.73;3.00;;;;;;;8.65;100.00;101239.03;5053260;28;20017;-85
2023/10/23 08:35:56;;;;;;;3.40;2.70;;;;;;;8.70;100.00;101241.59;5053127;28;20025;-85
2023/10/23 08:38:21;;;;;;;5.03;3.08;;;;;;;8.78;100.00;101250.22;5051135;28;20033;-86
2023/10/23 08:40:47;;;;;;;3.23;2.60;;;;;;;8.85;100.00;101251.91;5053215;28;20110;-86
2023/10/23 08:43:23;;;;;;;3.80;2.60;;;;;;;8.93;100.00;101247.59;5052847;28;20021;-85
2023/10/23 08:45:53;;;;;;;3.15;2.55;;;;;;;9.04;100.00;101257.06;5053214;28;20021;-85
2023/10/23 08:48:19;;;;;;;3.97;2.50;;;;;;;9.09;100.00;101248.44;5052762;28;20537;-81
2023/10/23 08:50:46;;;;;;;6.07;2.93;;;;;;;9.22;100.00;101253.59;5052403;28;20136;-83
2023/10/23 08:53:17;;;;;;;4.85;2.60;;;;;;;9.32;100.00;101255.28;5052846;28;20033;-83
2023/10/23 08:55:43;;;;;;;5.30;2.80;;;;;;;9.40;100.00;101257.84;5053176;28;20481;-83
2023/10/23 08:58:13;;;;;;;4.43;2.80;;;;;;;9.52;100.00;101251.72;5051964;28;20028;-83
2023/10/23 09:00:38;;;;;;;3.92;2.58;;;;;;;9.61;100.00;101250.84;5052201;28;20073;-82
2023/10/23 09:03:04;;;;;;;3.60;2.27;;;;;;;9.71;100.00;101247.34;5052586;28;20079;-83
2023/10/23 09:05:30;;;;;;;3.88;2.85;;;;;;;9.80;100.00;101243.81;5052203;28;20025;-83
2023/10/23 09:07:56;;;;;;;6.17;3.30;;;;;;;9.86;100.00;101243.78;5052439;28;20025;-83
2023/10/23 09:10:21;;;;;;;3.93;3.00;;;;;;;9.92;100.00;101241.16;5052454;28;20044;-86
2023/10/23 09:12:53;;;;;;;4.90;3.10;;;;;;;10.01;100.00;101243.69;5052028;28;20020;-85
2023/10/23 09:15:26;;;;;;;5.70;3.50;;;;;;;10.10;100.00;101239.31;5052551;28;20025;-86
2023/10/23 09:17:53;;;;;;;6.85;3.70;;;;;;;10.14;100.00;101230.63;5052860;28;20033;-86
2023/10/23 09:20:26;;;;;;;6.10;3.42;;;;;;;10.22;100.00;101241.81;5051859;28;20148;-85
2023/10/23 09:22:52;;;;;;;6.80;3.30;;;;;;;10.31;100.00;101228.78;5052531;28;20108;-88
2023/10/23 09:25:23;;;;;;;4.30;2.80;;;;;;;10.41;100.00;101236.50;5052696;28;20032;-86
2023/10/23 09:27:49;;;;;;;3.70;2.67;;;;;;;10.52;100.00;101226.91;5052055;28;20039;-85
2023/10/23 09:30:21;;;;;;;4.60;2.75;;;;;;;10.58;100.00;101219.06;5052559;28;20108;-83
2023/10/23 09:32:51;;;;;;;12.27;5.18;;;;;;;10.61;100.00;101219.03;5051939;28;20029;-77
2023/10/23 09:35:17;;;;;;;12.15;5.47;;;;;;;10.65;100.00;101220.72;5052477;28;20112;-83
2023/10/23 09:37:43;;;;;;;13.50;5.40;;;;;;;10.67;100.00;101215.50;5052687;28;20109;-83
2023/10/23 09:40:10;;;;;;;10.30;5.00;;;;;;;10.69;100.00;101213.78;5051594;28;20053;-83
2023/10/23 09:42:35;;;;;;;14.35;6.05;;;;;;;10.73;100.00;101215.47;5052635;28;20469;-86
2023/10/23 09:45:02;;;;;;;11.90;5.40;;;;;;;10.75;100.00;101205.91;5052615;28;20029;-86
2023/10/23 09:47:29;;;;;;;8.98;4.82;;;;;;;10.83;100.00;101200.63;5052232;28;20075;-86
2023/10/23 09:49:54;;;;;;;10.65;4.68;;;;;;;10.91;100.00;101203.16;5052559;28;20021;-87
2023/10/23 09:52:24;;;;;;;7.33;3.50;;;;;;;11.00;100.00;101203.06;5052192;28;20504;-87
2023/10/23 09:54:50;;;;;;;7.40;3.80;;;;;;;11.08;100.00;101208.16;5051776;28;20029;-86
2023/10/23 09:57:19;;;;;;;6.25;4.03;;;;;;;11.12;100.00;101205.50;5051906;28;20035;-86
2023/10/23 09:59:52;;;;;;;11.32;5.13;;;;;;;11.06;100.00;101196.94;5052674;28;20021;-86
2023/10/23 10:02:20;;;;;;;9.45;4.32;;;;;;;11.14;100.00;101197.72;5051402;28;20452;-86
2023/10/23 10:05:15;;;;;;;9.63;3.72;;;;;;;11.29;100.00;101207.06;5052619;28;20115;-87
2023/10/23 10:07:55;;;;;;;6.15;3.20;;;;;;;11.37;100.00;101210.41;5050612;28;20052;-87
2023/10/23 10:10:22;;;;;;;7.07;3.90;;;;;;;11.44;100.00;101212.03;5052321;28;20036;-87
2023/10/23 10:12:48;;;;;;;4.82;3.20;;;;;;;11.49;100.00;101209.38;5052403;28;20021;-87
2023/10/23 10:15:14;;;;;;;14.38;5.05;;;;;;;11.49;100.00;101206.78;5051735;28;20105;-86
2023/10/23 10:17:40;;;;;;;10.23;4.40;;;;;;;11.50;100.00;101205.06;5051998;28;20540;-86
2023/10/23 10:20:10;;;;;;;10.83;4.30;;;;;;;11.53;100.00;101203.28;5052023;28;20448;-87
2023/10/23 10:22:38;;;;;;;10.70;4.45;;;;;;;11.57;100.00;101198.88;5055245;28;20079;-87
2023/10/23 10:25:05;;;;;;;7.53;3.70;;;;;;;11.58;100.00;101198.88;5055638;28;20020;-87
2023/10/23 10:27:31;;;;;;;9.02;3.60;;;;;;;11.65;100.00;101194.44;5056136;28;20037;-87
2023/10/23 10:30:00;;;;;;;6.77;3.17;;;;;;;11.72;100.00;101192.59;5054891;28;20481;-87
2023/10/23 10:32:25;;;;;;;6.80;3.22;;;;;;;11.72;100.00;101180.47;5055344;28;20303;-87
2023/10/23 10:34:52;;;;;;;5.73;2.90;;;;;;;11.80;100.00;101182.09;5056033;28;20496;-87
2023/10/23 10:37:22;;;;;;;4.53;2.70;;;;;;;11.89;100.00;101174.16;5054374;28;20355;-86
2023/10/23 10:39:48;;;;;;;8.00;3.50;;;;;;;11.94;100.00;101169.75;5055584;28;20098;-86
2023/10/23 10:42:20;;;;;;;11.07;4.60;;;;;;;11.94;100.00;101174.94;5055081;28;20504;-86
2023/10/23 10:45:00;;;;;;;9.88;3.97;;;;;;;12.04;100.00;101175.72;5050359;28;20074;-86
2023/10/23 10:47:46;;;;;;;8.13;3.40;;;;;;;12.07;100.00;101167.00;5055096;28;20029;-86
2023/10/23 10:50:33;;;;;;;5.43;2.78;;;;;;;12.13;100.00;101161.66;5054279;28;20082;-87
2023/10/23 10:53:12;;;;;;;4.38;2.50;;;;;;;12.24;100.00;101161.50;5055469;28;20032;-87
2023/10/23 10:55:37;;;;;;;3.00;2.40;;;;;;;12.33;100.00;101153.53;5055709;28;20028;-84
2023/10/23 10:58:04;;;;;;;4.70;2.57;;;;;;;12.39;100.00;101149.97;5054314;28;20033;-84
2023/10/23 11:00:31;;;;;;;10.73;4.03;;;;;;;12.41;100.00;101138.63;5055133;28;20021;-84
2023/10/23 11:02:56;;;;;;;10.70;4.38;;;;;;;12.35;100.00;101139.59;5055166;28;20025;-83
2023/10/23 11:05:22;;;;;;;10.80;3.90;;;;;;;12.39;100.00;101131.75;5054266;28;20474;-84
2023/10/23 11:07:49;;;;;;;9.37;3.93;;;;;;;12.40;100.00;101117.84;5054994;28;20388;-84
2023/10/23 11:10:19;;;;;;;12.15;4.13;;;;;;;12.40;100.00;101123.03;5054810;28;20082;-83
2023/10/23 11:12:44;;;;;;;11.68;4.05;;;;;;;12.39;100.00;101119.56;5054538;28;20420;-84
2023/10/23 11:15:10;;;;;;;7.73;3.43;;;;;;;12.44;100.00;101111.69;5054498;28;20079;-83
2023/10/23 11:17:35;;;;;;;8.80;3.90;;;;;;;12.45;100.00;101101.25;5054979;28;20024;-83
2023/10/23 11:20:12;;;;;;;8.67;3.57;;;;;;;12.55;100.00;101099.34;5053884;28;20032;-84